createdAt,value
2023-05-03T00:00:04.000Z,99501
2023-05-03T00:01:31.000Z,99502
2023-05-03T00:03:37.000Z,99500
2023-05-03T00:05:03.000Z,99504
2023-05-03T00:07:11.000Z,99503
2023-05-03T00:08:38.000Z,99504
2023-05-03T00:10:44.000Z,99502
2023-05-03T00:12:11.000Z,99500
2023-05-03T00:14:17.000Z,99501
2023-05-03T00:15:43.000Z,99501
2023-05-03T00:17:49.000Z,99505
2023-05-03T00:19:16.000Z,99504
2023-05-03T00:21:37.000Z,99503
2023-05-03T00:23:04.000Z,99497
2023-05-03T00:25:10.000Z,99492
2023-05-03T00:26:36.000Z,99491
2023-05-03T00:28:42.000Z,99484
2023-05-03T00:31:33.000Z,99480
2023-05-03T00:33:00.000Z,99482
2023-05-03T00:35:06.000Z,99481
2023-05-03T00:36:33.000Z,99483
2023-05-03T00:38:41.000Z,99484
2023-05-03T00:40:08.000Z,99478
2023-05-03T00:42:14.000Z,99481
2023-05-03T00:43:40.000Z,99479
2023-05-03T00:45:46.000Z,99478
2023-05-03T00:47:13.000Z,99475
2023-05-03T00:49:19.000Z,99482
2023-05-03T00:50:46.000Z,99480
2023-05-03T00:52:52.000Z,99475
2023-05-03T00:54:18.000Z,99471
2023-05-03T00:56:24.000Z,99469
2023-05-03T00:57:51.000Z,99468
2023-05-03T00:59:57.000Z,99469
2023-05-03T01:01:23.000Z,99470
2023-05-03T01:03:30.000Z,99471
2023-05-03T01:04:56.000Z,99473
2023-05-03T01:07:02.000Z,99475
2023-05-03T01:09:53.000Z,99477
2023-05-03T01:11:20.000Z,99478
2023-05-03T01:13:26.000Z,99480
2023-05-03T01:14:52.000Z,99484
2023-05-03T01:16:58.000Z,99480
2023-05-03T01:18:25.000Z,99479
2023-05-03T01:20:31.000Z,99479
2023-05-03T01:21:57.000Z,99479
2023-05-03T01:24:04.000Z,99480
2023-05-03T01:25:30.000Z,99479
2023-05-03T01:27:36.000Z,99479
2023-05-03T01:29:03.000Z,99475
2023-05-03T01:31:09.000Z,99469
2023-05-03T01:32:35.000Z,99471
2023-05-03T01:34:42.000Z,99463
2023-05-03T01:36:08.000Z,99460
2023-05-03T01:38:14.000Z,99456
2023-05-03T01:39:41.000Z,99459
2023-05-03T01:41:47.000Z,99462
2023-05-03T01:43:13.000Z,99460
2023-05-03T01:45:19.000Z,99462
2023-05-03T01:48:11.000Z,99469
2023-05-03T01:49:37.000Z,99477
2023-05-03T01:51:43.000Z,99475
2023-05-03T01:53:10.000Z,99478
2023-05-03T01:55:16.000Z,99474
2023-05-03T01:56:42.000Z,99481
2023-05-03T01:58:48.000Z,99482
2023-05-03T02:00:15.000Z,99485
2023-05-03T02:02:21.000Z,99483
2023-05-03T02:03:48.000Z,99479
2023-05-03T02:05:54.000Z,99482
2023-05-03T02:07:20.000Z,99486
2023-05-03T02:09:24.000Z,99486
2023-05-03T02:10:50.000Z,99486
2023-05-03T02:12:54.000Z,99488
2023-05-03T02:14:19.000Z,99494
2023-05-03T02:16:23.000Z,99494
2023-05-03T02:17:47.000Z,99493
2023-05-03T02:19:52.000Z,99490
2023-05-03T02:21:18.000Z,99488
2023-05-03T02:23:22.000Z,99492
2023-05-03T02:26:11.000Z,99486
2023-05-03T02:27:36.000Z,99487
2023-05-03T02:29:39.000Z,99486
2023-05-03T02:31:04.000Z,99490
2023-05-03T02:33:08.000Z,99487
2023-05-03T02:34:32.000Z,99487
2023-05-03T02:36:36.000Z,99489
2023-05-03T02:38:00.000Z,99485
2023-05-03T02:40:04.000Z,99483
2023-05-03T02:41:29.000Z,99483
2023-05-03T02:43:33.000Z,99482
2023-05-03T02:44:57.000Z,99487
2023-05-03T02:47:01.000Z,99485
2023-05-03T02:48:25.000Z,99492
2023-05-03T02:50:29.000Z,99491
2023-05-03T02:51:54.000Z,99493
2023-05-03T02:53:57.000Z,99494
2023-05-03T02:55:21.000Z,99496
2023-05-03T02:57:25.000Z,99500
2023-05-03T02:58:49.000Z,99498
2023-05-03T03:00:53.000Z,99501
2023-05-03T03:03:42.000Z,99502
2023-05-03T03:05:07.000Z,99499
2023-05-03T03:07:10.000Z,99497
2023-05-03T03:08:35.000Z,99498
2023-05-03T03:10:38.000Z,99500
2023-05-03T03:12:03.000Z,99501
2023-05-03T03:14:06.000Z,99504
2023-05-03T03:15:31.000Z,99503
2023-05-03T03:17:34.000Z,99510
2023-05-03T03:18:59.000Z,99511
2023-05-03T03:21:02.000Z,99514
2023-05-03T03:22:27.000Z,99514
2023-05-03T03:24:30.000Z,99515
2023-05-03T03:25:55.000Z,99517
2023-05-03T03:27:58.000Z,99518
2023-05-03T03:29:22.000Z,99516
2023-05-03T03:31:26.000Z,99514
2023-05-03T03:32:50.000Z,99511
2023-05-03T03:34:54.000Z,99518
2023-05-03T03:36:18.000Z,99516
2023-05-03T03:38:22.000Z,99512
2023-05-03T03:41:11.000Z,99509
2023-05-03T03:42:35.000Z,99506
2023-05-03T03:44:39.000Z,99507
2023-05-03T03:46:03.000Z,99509
2023-05-03T03:48:07.000Z,99505
2023-05-03T03:49:31.000Z,99508
2023-05-03T03:51:35.000Z,99504
2023-05-03T03:52:59.000Z,99508
2023-05-03T03:55:02.000Z,99506
2023-05-03T03:56:27.000Z,99503
2023-05-03T03:58:30.000Z,99503
2023-05-03T03:59:55.000Z,99505
2023-05-03T04:01:58.000Z,99506
2023-05-03T04:03:23.000Z,99505
2023-05-03T04:05:26.000Z,99508
2023-05-03T04:06:51.000Z,99507
2023-05-03T04:08:55.000Z,99507
2023-05-03T04:10:19.000Z,99507
2023-05-03T04:12:22.000Z,99503
2023-05-03T04:13:47.000Z,99507
2023-05-03T04:15:50.000Z,99501
2023-05-03T04:18:40.000Z,99504
2023-05-03T04:20:04.000Z,99508
2023-05-03T04:22:08.000Z,99509
2023-05-03T04:23:33.000Z,99509
2023-05-03T04:25:36.000Z,99519
2023-05-03T04:27:01.000Z,99518
2023-05-03T04:29:04.000Z,99519
2023-05-03T04:30:28.000Z,99523
2023-05-03T04:32:32.000Z,99525
2023-05-03T04:33:56.000Z,99529
2023-05-03T04:36:00.000Z,99529
2023-05-03T04:37:24.000Z,99531
2023-05-03T04:39:28.000Z,99528
2023-05-03T04:40:52.000Z,99528
2023-05-03T04:42:56.000Z,99530
2023-05-03T04:44:20.000Z,99533
2023-05-03T04:46:24.000Z,99535
2023-05-03T04:47:48.000Z,99531
2023-05-03T04:49:52.000Z,99530
2023-05-03T04:51:16.000Z,99533
2023-05-03T04:53:20.000Z,99532
2023-05-03T04:57:41.000Z,99535
2023-05-03T04:59:48.000Z,99536
2023-05-03T05:00:21.000Z,99538
2023-05-03T05:01:46.000Z,99537
2023-05-03T05:03:50.000Z,99535
2023-05-03T05:05:17.000Z,99535
2023-05-03T05:07:26.000Z,99538
2023-05-03T05:08:52.000Z,99537
2023-05-03T05:10:58.000Z,99537
2023-05-03T05:12:25.000Z,99536
2023-05-03T05:14:31.000Z,99538
2023-05-03T05:15:57.000Z,99534
2023-05-03T05:18:04.000Z,99533
2023-05-03T05:19:30.000Z,99536
2023-05-03T05:21:36.000Z,99535
2023-05-03T05:23:03.000Z,99535
2023-05-03T05:25:09.000Z,99537
2023-05-03T05:26:36.000Z,99542
2023-05-03T05:28:42.000Z,99540
2023-05-03T05:30:08.000Z,99542
2023-05-03T05:32:14.000Z,99539
2023-05-03T05:33:41.000Z,99538
2023-05-03T05:35:47.000Z,99540
2023-05-03T05:38:26.000Z,99535
2023-05-03T05:39:53.000Z,99540
2023-05-03T05:41:59.000Z,99536
2023-05-03T05:43:26.000Z,99538
2023-05-03T05:45:32.000Z,99540
2023-05-03T05:46:58.000Z,99540
2023-05-03T05:49:05.000Z,99538
2023-05-03T05:50:31.000Z,99539
2023-05-03T05:52:37.000Z,99541
2023-05-03T05:54:04.000Z,99542
2023-05-03T05:56:10.000Z,99549
2023-05-03T05:57:36.000Z,99549
2023-05-03T05:59:42.000Z,99546
2023-05-03T06:01:09.000Z,99546
2023-05-03T06:03:15.000Z,99541
2023-05-03T06:04:42.000Z,99544
2023-05-03T06:06:48.000Z,99544
2023-05-03T06:08:14.000Z,99544
2023-05-03T06:10:21.000Z,99541
2023-05-03T06:11:47.000Z,99540
2023-05-03T06:13:53.000Z,99543
2023-05-03T06:16:44.000Z,99543
2023-05-03T06:18:11.000Z,99541
2023-05-03T06:20:17.000Z,99544
2023-05-03T06:21:44.000Z,99541
2023-05-03T06:23:50.000Z,99539
2023-05-03T06:25:16.000Z,99534
2023-05-03T06:27:24.000Z,99535
2023-05-03T06:28:50.000Z,99532
2023-05-03T06:30:56.000Z,99538
2023-05-03T06:32:23.000Z,99536
2023-05-03T06:34:29.000Z,99535
2023-05-03T06:35:56.000Z,99532
2023-05-03T06:38:02.000Z,99537
2023-05-03T06:39:28.000Z,99535
2023-05-03T06:41:34.000Z,99535
2023-05-03T06:43:01.000Z,99528
2023-05-03T06:45:07.000Z,99529
2023-05-03T06:46:34.000Z,99529
2023-05-03T06:48:40.000Z,99531
2023-05-03T06:50:06.000Z,99531
2023-05-03T06:52:12.000Z,99525
2023-05-03T06:55:04.000Z,99524
2023-05-03T06:56:30.000Z,99519
2023-05-03T06:58:36.000Z,99517
2023-05-03T07:00:03.000Z,99519
2023-05-03T07:02:09.000Z,99516
2023-05-03T07:03:36.000Z,99516
2023-05-03T07:05:45.000Z,99512
2023-05-03T07:07:11.000Z,99515
2023-05-03T07:09:17.000Z,99517
2023-05-03T07:10:48.000Z,99516
2023-05-03T07:12:54.000Z,99517
2023-05-03T07:14:21.000Z,99512
2023-05-03T07:16:27.000Z,99512
2023-05-03T07:17:54.000Z,99508
2023-05-03T07:20:00.000Z,99506
2023-05-03T07:21:26.000Z,99509
2023-05-03T07:23:32.000Z,99509
2023-05-03T07:24:59.000Z,99508
2023-05-03T07:27:05.000Z,99510
2023-05-03T07:28:32.000Z,99513
2023-05-03T07:30:38.000Z,99510
2023-05-03T07:33:29.000Z,99512
2023-05-03T07:34:56.000Z,99507
2023-05-03T07:37:02.000Z,99512
2023-05-03T07:38:28.000Z,99506
2023-05-03T07:40:34.000Z,99506
2023-05-03T07:42:01.000Z,99506
2023-05-03T07:44:07.000Z,99507
2023-05-03T07:45:33.000Z,99498
2023-05-03T07:47:40.000Z,99500
2023-05-03T07:49:06.000Z,99497
2023-05-03T07:51:12.000Z,99493
2023-05-03T07:52:39.000Z,99497
2023-05-03T07:54:45.000Z,99503
2023-05-03T07:56:12.000Z,99502
2023-05-03T07:58:18.000Z,99502
2023-05-03T07:59:54.000Z,99502
2023-05-03T08:02:00.000Z,99505
2023-05-03T08:03:28.000Z,99502
2023-05-03T08:05:34.000Z,99500
2023-05-03T08:07:01.000Z,99498
2023-05-03T08:09:07.000Z,99500
2023-05-03T08:11:58.000Z,99490
2023-05-03T08:13:25.000Z,99495
2023-05-03T08:15:31.000Z,99492
2023-05-03T08:16:57.000Z,99490
2023-05-03T08:19:03.000Z,99492
2023-05-03T08:20:30.000Z,99490
2023-05-03T08:22:36.000Z,99496
2023-05-03T08:24:03.000Z,99498
2023-05-03T08:26:09.000Z,99496
2023-05-03T08:27:35.000Z,99494
2023-05-03T08:29:41.000Z,99490
2023-05-03T08:31:08.000Z,99484
2023-05-03T08:33:14.000Z,99483
2023-05-03T08:34:41.000Z,99488
2023-05-03T08:36:47.000Z,99492
2023-05-03T08:38:14.000Z,99487
2023-05-03T08:40:20.000Z,99492
2023-05-03T08:41:46.000Z,99491
2023-05-03T08:43:52.000Z,99485
2023-05-03T08:45:19.000Z,99482
2023-05-03T08:47:25.000Z,99480
2023-05-03T08:50:16.000Z,99478
2023-05-03T08:51:43.000Z,99478
2023-05-03T08:53:49.000Z,99479
2023-05-03T08:55:15.000Z,99476
2023-05-03T08:57:21.000Z,99478
2023-05-03T08:58:48.000Z,99474
2023-05-03T09:00:54.000Z,99482
2023-05-03T09:02:21.000Z,99475
2023-05-03T09:04:27.000Z,99476
2023-05-03T09:05:53.000Z,99473
2023-05-03T09:07:59.000Z,99471
2023-05-03T09:09:26.000Z,99473
2023-05-03T09:11:32.000Z,99470
2023-05-03T09:12:59.000Z,99466
2023-05-03T09:15:05.000Z,99470
2023-05-03T09:16:32.000Z,99475
2023-05-03T09:18:38.000Z,99471
2023-05-03T09:20:04.000Z,99469
2023-05-03T09:22:11.000Z,99469
2023-05-03T09:23:38.000Z,99470
2023-05-03T09:25:44.000Z,99471
2023-05-03T09:28:35.000Z,99471
2023-05-03T09:30:02.000Z,99465
2023-05-03T09:32:08.000Z,99463
2023-05-03T09:33:35.000Z,99460
2023-05-03T09:35:41.000Z,99466
2023-05-03T09:37:08.000Z,99467
2023-05-03T09:39:14.000Z,99467
2023-05-03T09:40:40.000Z,99468
2023-05-03T09:42:46.000Z,99468
2023-05-03T09:44:13.000Z,99465
2023-05-03T09:46:19.000Z,99461
2023-05-03T09:47:46.000Z,99459
2023-05-03T09:49:52.000Z,99461
2023-05-03T09:51:18.000Z,99462
2023-05-03T09:53:24.000Z,99465
2023-05-03T09:54:51.000Z,99463
2023-05-03T09:56:57.000Z,99460
2023-05-03T09:58:24.000Z,99459
2023-05-03T10:00:30.000Z,99452
2023-05-03T10:01:56.000Z,99456
2023-05-03T10:04:02.000Z,99453
2023-05-03T10:06:53.000Z,99453
2023-05-03T10:08:20.000Z,99450
2023-05-03T10:10:26.000Z,99453
2023-05-03T10:11:53.000Z,99452
2023-05-03T10:13:59.000Z,99453
2023-05-03T10:15:25.000Z,99449
2023-05-03T10:17:31.000Z,99446
2023-05-03T10:19:14.000Z,99443
2023-05-03T10:21:21.000Z,99436
2023-05-03T10:22:47.000Z,99440
2023-05-03T10:24:53.000Z,99433
2023-05-03T10:26:20.000Z,99439
2023-05-03T10:28:26.000Z,99431
2023-05-03T10:29:53.000Z,99426
2023-05-03T10:31:59.000Z,99427
2023-05-03T10:33:26.000Z,99428
2023-05-03T10:35:32.000Z,99435
2023-05-03T10:36:58.000Z,99433
2023-05-03T10:39:04.000Z,99435
2023-05-03T10:40:31.000Z,99429
2023-05-03T10:42:37.000Z,99422
2023-05-03T10:45:28.000Z,99427
2023-05-03T10:46:55.000Z,99419
2023-05-03T10:49:01.000Z,99412
2023-05-03T10:50:28.000Z,99418
2023-05-03T10:52:34.000Z,99416
2023-05-03T10:54:00.000Z,99420
2023-05-03T10:56:06.000Z,99420
2023-05-03T10:57:33.000Z,99420
2023-05-03T10:59:39.000Z,99419
2023-05-03T11:01:05.000Z,99416
2023-05-03T11:03:12.000Z,99418
2023-05-03T11:04:38.000Z,99417
2023-05-03T11:06:44.000Z,99417
2023-05-03T11:08:11.000Z,99413
2023-05-03T11:10:17.000Z,99417
2023-05-03T11:11:43.000Z,99420
2023-05-03T11:13:49.000Z,99415
2023-05-03T11:15:16.000Z,99412
2023-05-03T11:17:22.000Z,99411
2023-05-03T11:18:49.000Z,99409
2023-05-03T11:20:55.000Z,99410
2023-05-03T11:23:46.000Z,99412
2023-05-03T11:25:12.000Z,99416
2023-05-03T11:27:18.000Z,99408
2023-05-03T11:28:45.000Z,99415
2023-05-03T11:30:51.000Z,99414
2023-05-03T11:32:18.000Z,99410
2023-05-03T11:34:24.000Z,99408
2023-05-03T11:35:51.000Z,99406
2023-05-03T11:37:57.000Z,99405
2023-05-03T11:39:23.000Z,99402
2023-05-03T11:41:29.000Z,99401
2023-05-03T11:42:56.000Z,99400
2023-05-03T11:45:02.000Z,99399
2023-05-03T11:46:30.000Z,99399
2023-05-03T11:48:36.000Z,99391
2023-05-03T11:50:02.000Z,99394
2023-05-03T11:52:08.000Z,99392
2023-05-03T11:53:35.000Z,99389
2023-05-03T11:55:41.000Z,99386
2023-05-03T11:57:08.000Z,99385
2023-05-03T11:59:14.000Z,99382
2023-05-03T12:02:05.000Z,99381
2023-05-03T12:03:33.000Z,99379
2023-05-03T12:05:40.000Z,99379
2023-05-03T12:07:07.000Z,99380
2023-05-03T12:09:14.000Z,99380
2023-05-03T12:10:42.000Z,99382
2023-05-03T12:12:49.000Z,99374
2023-05-03T12:14:19.000Z,99372
2023-05-03T12:16:26.000Z,99380
2023-05-03T12:17:52.000Z,99377
2023-05-03T12:21:33.000Z,99376
2023-05-03T12:23:42.000Z,99376
2023-05-03T12:25:08.000Z,99376
2023-05-03T12:27:16.000Z,99373
2023-05-03T12:28:45.000Z,99374
2023-05-03T12:30:52.000Z,99372
2023-05-03T12:32:20.000Z,99377
2023-05-03T12:34:28.000Z,99371
2023-05-03T12:36:02.000Z,99372
2023-05-03T12:38:10.000Z,99364
2023-05-03T12:41:02.000Z,99364
2023-05-03T12:42:28.000Z,99363
2023-05-03T12:44:35.000Z,99359
2023-05-03T12:46:02.000Z,99353
2023-05-03T12:48:38.000Z,99346
2023-05-03T12:50:05.000Z,99347
2023-05-03T12:52:12.000Z,99343
2023-05-03T12:54:04.000Z,99338
2023-05-03T12:56:15.000Z,99336
2023-05-03T12:57:43.000Z,99340
2023-05-03T12:59:52.000Z,99340
2023-05-03T13:03:29.000Z,99335
2023-05-03T13:05:00.000Z,99332
2023-05-03T13:08:47.000Z,99324
2023-05-03T13:10:57.000Z,99322
2023-05-03T13:12:23.000Z,99323
2023-05-03T13:14:29.000Z,99314
2023-05-03T13:15:56.000Z,99312
2023-05-03T13:18:02.000Z,99305
2023-05-03T13:20:53.000Z,99305
2023-05-03T13:22:20.000Z,99301
2023-05-03T13:24:26.000Z,99297
2023-05-03T13:25:53.000Z,99295
2023-05-03T13:27:59.000Z,99296
2023-05-03T13:29:25.000Z,99289
2023-05-03T13:31:32.000Z,99287
2023-05-03T13:32:58.000Z,99285
2023-05-03T13:35:04.000Z,99283
2023-05-03T13:36:32.000Z,99281
2023-05-03T13:38:38.000Z,99278
2023-05-03T13:40:04.000Z,99278
2023-05-03T13:42:11.000Z,99278
2023-05-03T13:43:38.000Z,99274
2023-05-03T13:45:44.000Z,99277
2023-05-03T13:47:10.000Z,99275
2023-05-03T13:49:16.000Z,99271
2023-05-03T13:50:43.000Z,99271
2023-05-03T13:52:49.000Z,99269
2023-05-03T13:54:16.000Z,99268
2023-05-03T13:56:22.000Z,99268
2023-05-03T13:59:13.000Z,99271
2023-05-03T14:00:39.000Z,99267
2023-05-03T14:02:46.000Z,99264
2023-05-03T14:04:12.000Z,99264
2023-05-03T14:06:19.000Z,99266
2023-05-03T14:07:45.000Z,99260
2023-05-03T14:09:52.000Z,99260
2023-05-03T14:11:18.000Z,99259
2023-05-03T14:13:24.000Z,99258
2023-05-03T14:14:51.000Z,99256
2023-05-03T14:16:57.000Z,99255
2023-05-03T14:18:24.000Z,99257
2023-05-03T14:20:30.000Z,99251
2023-05-03T14:21:57.000Z,99246
2023-05-03T14:24:03.000Z,99249
2023-05-03T14:25:29.000Z,99242
2023-05-03T14:27:35.000Z,99243
2023-05-03T14:29:02.000Z,99239
2023-05-03T14:31:08.000Z,99239
2023-05-03T14:32:35.000Z,99236
2023-05-03T14:34:41.000Z,99236
2023-05-03T14:37:32.000Z,99238
2023-05-03T14:38:59.000Z,99233
2023-05-03T14:41:05.000Z,99234
2023-05-03T14:42:32.000Z,99234
2023-05-03T14:44:38.000Z,99224
2023-05-03T14:46:04.000Z,99226
2023-05-03T14:48:11.000Z,99223
2023-05-03T14:49:37.000Z,99220
2023-05-03T14:51:43.000Z,99227
2023-05-03T14:53:10.000Z,99224
2023-05-03T14:55:17.000Z,99222
2023-05-03T14:56:43.000Z,99222
2023-05-03T14:58:49.000Z,99218
2023-05-03T15:00:16.000Z,99221
2023-05-03T15:02:22.000Z,99222
2023-05-03T15:03:49.000Z,99224
2023-05-03T15:05:55.000Z,99219
2023-05-03T15:07:21.000Z,99218
2023-05-03T15:09:28.000Z,99220
2023-05-03T15:10:54.000Z,99223
2023-05-03T15:13:00.000Z,99223
2023-05-03T15:15:52.000Z,99219
2023-05-03T15:17:18.000Z,99221
2023-05-03T15:19:25.000Z,99213
2023-05-03T15:20:51.000Z,99219
2023-05-03T15:22:57.000Z,99220
2023-05-03T15:24:24.000Z,99220
2023-05-03T15:26:30.000Z,99216
2023-05-03T15:27:56.000Z,99216
2023-05-03T15:30:03.000Z,99219
2023-05-03T15:31:30.000Z,99219
2023-05-03T15:33:36.000Z,99216
2023-05-03T15:35:02.000Z,99221
2023-05-03T15:37:09.000Z,99214
2023-05-03T15:38:35.000Z,99216
2023-05-03T15:40:41.000Z,99213
2023-05-03T15:42:08.000Z,99219
2023-05-03T15:44:14.000Z,99217
2023-05-03T15:45:40.000Z,99212
2023-05-03T15:47:47.000Z,99211
2023-05-03T15:49:13.000Z,99211
2023-05-03T15:51:19.000Z,99213
2023-05-03T15:54:11.000Z,99209
2023-05-03T15:55:37.000Z,99210
2023-05-03T15:57:43.000Z,99211
2023-05-03T15:59:10.000Z,99204
2023-05-03T16:01:16.000Z,99205
2023-05-03T16:02:42.000Z,99208
2023-05-03T16:04:49.000Z,99206
2023-05-03T16:06:16.000Z,99205
2023-05-03T16:08:23.000Z,99208
2023-05-03T16:09:49.000Z,99208
2023-05-03T16:11:55.000Z,99210
2023-05-03T16:13:22.000Z,99207
2023-05-03T16:15:28.000Z,99207
2023-05-03T16:16:54.000Z,99206
2023-05-03T16:19:00.000Z,99208
2023-05-03T16:20:27.000Z,99206
2023-05-03T16:22:33.000Z,99204
2023-05-03T16:24:00.000Z,99201
2023-05-03T16:26:06.000Z,99202
2023-05-03T16:27:32.000Z,99204
2023-05-03T16:29:38.000Z,99198
2023-05-03T16:32:30.000Z,99196
2023-05-03T16:33:56.000Z,99197
2023-05-03T16:36:02.000Z,99194
2023-05-03T16:37:29.000Z,99196
2023-05-03T16:39:35.000Z,99195
2023-05-03T16:41:01.000Z,99195
2023-05-03T16:43:08.000Z,99196
2023-05-03T16:44:34.000Z,99196
2023-05-03T16:46:40.000Z,99196
2023-05-03T16:48:07.000Z,99194
2023-05-03T16:50:16.000Z,99194
2023-05-03T16:51:42.000Z,99192
2023-05-03T16:53:48.000Z,99192
2023-05-03T16:55:15.000Z,99191
2023-05-03T16:57:21.000Z,99192
2023-05-03T17:01:08.000Z,99191
2023-05-03T17:02:35.000Z,99188
2023-05-03T17:04:41.000Z,99182
2023-05-03T17:06:08.000Z,99187
2023-05-03T17:08:14.000Z,99181
2023-05-03T17:11:05.000Z,99181
2023-05-03T17:12:32.000Z,99180
2023-05-03T17:14:38.000Z,99174
2023-05-03T17:16:04.000Z,99176
2023-05-03T17:18:11.000Z,99177
2023-05-03T17:19:37.000Z,99170
2023-05-03T17:21:43.000Z,99174
2023-05-03T17:23:10.000Z,99178
2023-05-03T17:25:16.000Z,99175
2023-05-03T17:26:43.000Z,99179
2023-05-03T17:28:49.000Z,99182
2023-05-03T17:30:15.000Z,99182
2023-05-03T17:32:22.000Z,99180
2023-05-03T17:33:48.000Z,99183
2023-05-03T17:35:54.000Z,99184
2023-05-03T17:37:21.000Z,99181
2023-05-03T17:39:27.000Z,99179
2023-05-03T17:40:54.000Z,99184
2023-05-03T17:43:00.000Z,99187
2023-05-03T17:44:26.000Z,99188
2023-05-03T17:46:32.000Z,99180
2023-05-03T17:49:26.000Z,99189
2023-05-03T17:50:53.000Z,99186
2023-05-03T17:52:59.000Z,99187
2023-05-03T17:54:26.000Z,99191
2023-05-03T17:56:32.000Z,99192
2023-05-03T17:57:58.000Z,99192
2023-05-03T18:00:04.000Z,99187
2023-05-03T18:01:32.000Z,99184
2023-05-03T18:03:38.000Z,99188
2023-05-03T18:05:05.000Z,99189
2023-05-03T18:07:11.000Z,99189
2023-05-03T18:08:37.000Z,99194
2023-05-03T18:10:43.000Z,99194
2023-05-03T18:12:10.000Z,99192
2023-05-03T18:14:16.000Z,99194
2023-05-03T18:15:42.000Z,99195
2023-05-03T18:17:49.000Z,99192
2023-05-03T18:19:15.000Z,99196
2023-05-03T18:21:21.000Z,99196
2023-05-03T18:22:48.000Z,99193
2023-05-03T18:24:54.000Z,99194
2023-05-03T18:27:46.000Z,99189
2023-05-03T18:29:12.000Z,99195
2023-05-03T18:31:18.000Z,99196
2023-05-03T18:32:45.000Z,99197
2023-05-03T18:34:51.000Z,99200
2023-05-03T18:36:17.000Z,99198
2023-05-03T18:38:23.000Z,99204
2023-05-03T18:39:50.000Z,99203
2023-05-03T18:41:56.000Z,99203
2023-05-03T18:43:22.000Z,99202
2023-05-03T18:45:28.000Z,99206
2023-05-03T18:46:55.000Z,99205
2023-05-03T18:49:01.000Z,99209
2023-05-03T18:50:30.000Z,99206
2023-05-03T18:52:36.000Z,99209
2023-05-03T18:54:03.000Z,99215
2023-05-03T18:56:09.000Z,99214
2023-05-03T18:57:35.000Z,99214
2023-05-03T18:59:41.000Z,99212
2023-05-03T19:01:26.000Z,99215
2023-05-03T19:03:32.000Z,99212
2023-05-03T19:06:23.000Z,99215
2023-05-03T19:07:49.000Z,99216
2023-05-03T19:09:56.000Z,99218
2023-05-03T19:11:22.000Z,99217
2023-05-03T19:13:30.000Z,99222
2023-05-03T19:14:56.000Z,99224
2023-05-03T19:17:02.000Z,99224
2023-05-03T19:18:29.000Z,99224
2023-05-03T19:20:35.000Z,99228
2023-05-03T19:22:02.000Z,99226
2023-05-03T19:24:08.000Z,99229
2023-05-03T19:25:34.000Z,99229
2023-05-03T19:27:40.000Z,99228
2023-05-03T19:29:07.000Z,99231
2023-05-03T19:31:13.000Z,99233
2023-05-03T19:32:40.000Z,99234
2023-05-03T19:34:46.000Z,99232
2023-05-03T19:36:12.000Z,99235
2023-05-03T19:38:18.000Z,99235
2023-05-03T19:39:45.000Z,99234
2023-05-03T19:41:51.000Z,99238
2023-05-03T19:44:42.000Z,99239
2023-05-03T19:46:09.000Z,99239
2023-05-03T19:48:15.000Z,99239
2023-05-03T19:49:43.000Z,99241
2023-05-03T19:51:49.000Z,99242
2023-05-03T19:53:15.000Z,99240
2023-05-03T19:55:22.000Z,99237
2023-05-03T19:56:48.000Z,99238
2023-05-03T19:58:54.000Z,99239
2023-05-03T20:00:21.000Z,99238
2023-05-03T20:02:27.000Z,99236
2023-05-03T20:03:53.000Z,99237
2023-05-03T20:06:00.000Z,99234
2023-05-03T20:07:26.000Z,99239
2023-05-03T20:09:32.000Z,99239
2023-05-03T20:10:59.000Z,99235
2023-05-03T20:13:05.000Z,99237
2023-05-03T20:14:32.000Z,99234
2023-05-03T20:16:38.000Z,99232
2023-05-03T20:18:04.000Z,99235
2023-05-03T20:20:11.000Z,99229
2023-05-03T20:23:02.000Z,99232
2023-05-03T20:24:28.000Z,99229
2023-05-03T20:26:34.000Z,99231
2023-05-03T20:28:01.000Z,99233
2023-05-03T20:30:07.000Z,99229
2023-05-03T20:31:34.000Z,99231
2023-05-03T20:33:40.000Z,99229
2023-05-03T20:35:07.000Z,99232
2023-05-03T20:37:13.000Z,99226
2023-05-03T20:38:39.000Z,99228
2023-05-03T20:40:45.000Z,99226
2023-05-03T20:42:12.000Z,99225
2023-05-03T20:44:18.000Z,99224
2023-05-03T20:45:45.000Z,99223
2023-05-03T20:47:51.000Z,99224
2023-05-03T20:49:18.000Z,99227
2023-05-03T20:51:24.000Z,99226
2023-05-03T20:52:50.000Z,99229
2023-05-03T20:54:56.000Z,99231
2023-05-03T20:56:23.000Z,99232
2023-05-03T20:58:29.000Z,99231
2023-05-03T21:01:20.000Z,99226
2023-05-03T21:02:47.000Z,99222
2023-05-03T21:04:53.000Z,99226
2023-05-03T21:06:19.000Z,99223
2023-05-03T21:08:26.000Z,99227
2023-05-03T21:09:52.000Z,99226
2023-05-03T21:11:58.000Z,99227
2023-05-03T21:13:25.000Z,99223
2023-05-03T21:15:31.000Z,99226
2023-05-03T21:16:57.000Z,99231
2023-05-03T21:19:04.000Z,99233
2023-05-03T21:20:30.000Z,99232
2023-05-03T21:22:36.000Z,99236
2023-05-03T21:24:03.000Z,99234
2023-05-03T21:26:09.000Z,99231
2023-05-03T21:27:35.000Z,99232
2023-05-03T21:29:41.000Z,99231
2023-05-03T21:31:08.000Z,99229
2023-05-03T21:33:14.000Z,99231
2023-05-03T21:34:41.000Z,99231
2023-05-03T21:36:47.000Z,99230
2023-05-03T21:39:38.000Z,99232
2023-05-03T21:41:05.000Z,99229
2023-05-03T21:43:11.000Z,99232
2023-05-03T21:44:38.000Z,99231
2023-05-03T21:46:44.000Z,99226
2023-05-03T21:48:11.000Z,99229
2023-05-03T21:50:17.000Z,99226
2023-05-03T21:51:43.000Z,99228
2023-05-03T21:53:49.000Z,99223
2023-05-03T21:55:16.000Z,99223
2023-05-03T21:57:22.000Z,99224
2023-05-03T21:58:48.000Z,99225
2023-05-03T22:00:55.000Z,99223
2023-05-03T22:02:21.000Z,99222
2023-05-03T22:04:27.000Z,99223
2023-05-03T22:05:54.000Z,99218
2023-05-03T22:08:00.000Z,99220
2023-05-03T22:09:26.000Z,99215
2023-05-03T22:11:33.000Z,99216
2023-05-03T22:12:59.000Z,99216
2023-05-03T22:15:06.000Z,99218
2023-05-03T22:17:57.000Z,99214
2023-05-03T22:19:23.000Z,99218
2023-05-03T22:21:29.000Z,99216
2023-05-03T22:22:56.000Z,99218
2023-05-03T22:25:02.000Z,99214
2023-05-03T22:26:29.000Z,99219
2023-05-03T22:28:35.000Z,99215
2023-05-03T22:30:01.000Z,99215
2023-05-03T22:32:08.000Z,99213
2023-05-03T22:33:34.000Z,99213
2023-05-03T22:35:40.000Z,99214
2023-05-03T22:37:07.000Z,99214
2023-05-03T22:39:13.000Z,99216
2023-05-03T22:40:39.000Z,99213
2023-05-03T22:42:45.000Z,99214
2023-05-03T22:44:12.000Z,99217
2023-05-03T22:46:18.000Z,99216
2023-05-03T22:47:45.000Z,99209
2023-05-03T22:49:51.000Z,99206
2023-05-03T22:51:17.000Z,99211
2023-05-03T22:53:24.000Z,99208
2023-05-03T22:56:15.000Z,99205
2023-05-03T22:57:41.000Z,99204
2023-05-03T22:59:47.000Z,99199
2023-05-03T23:01:14.000Z,99198
2023-05-03T23:03:20.000Z,99195
2023-05-03T23:04:47.000Z,99196
2023-05-03T23:06:53.000Z,99192
2023-05-03T23:08:25.000Z,99193
2023-05-03T23:10:31.000Z,99188
2023-05-03T23:11:57.000Z,99192
2023-05-03T23:14:04.000Z,99191
2023-05-03T23:15:30.000Z,99191
2023-05-03T23:17:36.000Z,99194
2023-05-03T23:19:03.000Z,99195
2023-05-03T23:21:09.000Z,99194
2023-05-03T23:22:35.000Z,99198
2023-05-03T23:24:42.000Z,99189
2023-05-03T23:26:08.000Z,99192
2023-05-03T23:28:15.000Z,99190
2023-05-03T23:29:42.000Z,99187
2023-05-03T23:31:48.000Z,99186
2023-05-03T23:34:40.000Z,99181
2023-05-03T23:36:06.000Z,99183